createdAt,value
2023-03-29T00:02:05.204Z,12.59
2023-03-29T00:04:32.182Z,12.57
2023-03-29T00:07:04.112Z,12.54
2023-03-29T00:09:33.494Z,12.56
2023-03-29T00:12:01.569Z,12.56
2023-03-29T00:14:30.907Z,12.57
2023-03-29T00:16:59.220Z,12.56
2023-03-29T00:19:26.777Z,12.57
2023-03-29T00:21:53.525Z,12.56
2023-03-29T00:24:21.617Z,12.54
2023-03-29T00:26:48.569Z,12.54
2023-03-29T00:29:15.326Z,12.53
2023-03-29T00:31:42.286Z,12.55
2023-03-29T00:34:09.193Z,12.56
2023-03-29T00:36:35.849Z,12.57
2023-03-29T00:39:03.170Z,12.56
2023-03-29T00:41:29.880Z,12.58
2023-03-29T00:44:02.084Z,12.57
2023-03-29T00:46:32.120Z,12.56
2023-03-29T00:49:05.863Z,12.57
2023-03-29T00:51:36.795Z,12.56
2023-03-29T00:54:06.645Z,12.57
2023-03-29T00:56:37.815Z,12.57
2023-03-29T00:59:04.960Z,12.58
2023-03-29T01:01:42.348Z,12.58
2023-03-29T01:04:18.554Z,12.55
2023-03-29T01:06:57.007Z,12.53
2023-03-29T01:09:27.241Z,12.49
2023-03-29T01:11:57.488Z,12.47
2023-03-29T01:14:49.017Z,12.44
2023-03-29T01:17:16.536Z,12.39
2023-03-29T01:19:51.014Z,12.37
2023-03-29T01:22:31.157Z,12.36
2023-03-29T01:25:29.757Z,12.38
2023-03-29T01:28:18.533Z,12.41
2023-03-29T01:31:10.788Z,12.44
2023-03-29T01:33:51.184Z,12.46
2023-03-29T01:36:25.099Z,12.47
2023-03-29T01:39:00.952Z,12.46
2023-03-29T01:41:46.797Z,12.47
2023-03-29T01:44:16.625Z,12.46
2023-03-29T01:46:48.580Z,12.45
2023-03-29T01:49:27.465Z,12.44
2023-03-29T01:52:17.636Z,12.41
2023-03-29T01:54:53.445Z,12.38
2023-03-29T01:57:21.885Z,12.33
2023-03-29T01:59:49.738Z,12.31
2023-03-29T02:02:19.049Z,12.34
2023-03-29T02:04:51.886Z,12.33
2023-03-29T02:07:21.187Z,12.31
2023-03-29T02:09:50.590Z,12.30
2023-03-29T02:12:17.505Z,12.29
2023-03-29T02:14:44.511Z,12.30
2023-03-29T02:17:23.411Z,12.30
2023-03-29T02:19:59.520Z,12.29
2023-03-29T02:22:38.768Z,12.27
2023-03-29T02:25:09.110Z,12.26
2023-03-29T02:27:37.890Z,12.25
2023-03-29T02:30:07.398Z,12.21
2023-03-29T02:32:43.663Z,12.19
2023-03-29T02:35:14.360Z,12.20
2023-03-29T02:37:45.346Z,12.20
2023-03-29T02:40:14.521Z,12.21
2023-03-29T02:42:44.975Z,12.15
2023-03-29T02:45:17.294Z,12.12
2023-03-29T02:47:52.427Z,12.16
2023-03-29T02:50:20.744Z,12.16
2023-03-29T02:52:59.676Z,12.13
2023-03-29T02:55:34.839Z,12.12
2023-03-29T02:58:08.480Z,12.13
2023-03-29T03:00:42.340Z,12.16
2023-03-29T03:03:10.477Z,12.17
2023-03-29T03:05:38.498Z,12.17
2023-03-29T03:08:07.308Z,12.14
2023-03-29T03:10:35.468Z,12.06
2023-03-29T03:13:03.050Z,12.02
2023-03-29T03:15:31.227Z,11.98
2023-03-29T03:17:58.099Z,11.94
2023-03-29T03:20:25.086Z,11.92
2023-03-29T03:22:51.778Z,11.90
2023-03-29T03:25:21.341Z,11.85
2023-03-29T03:27:49.848Z,11.79
2023-03-29T03:30:17.470Z,11.74
2023-03-29T03:32:45.020Z,11.71
2023-03-29T03:35:11.942Z,11.69
2023-03-29T03:37:40.182Z,11.66
2023-03-29T03:40:09.048Z,11.69
2023-03-29T03:42:35.920Z,11.71
2023-03-29T03:45:02.606Z,11.72
2023-03-29T03:47:29.568Z,11.79
2023-03-29T03:49:56.565Z,11.84
2023-03-29T03:52:23.501Z,11.88
2023-03-29T03:54:50.468Z,11.89
2023-03-29T03:57:17.647Z,11.90
2023-03-29T03:59:44.886Z,11.90
2023-03-29T04:02:11.721Z,11.87
2023-03-29T04:04:39.574Z,11.87
2023-03-29T04:07:06.259Z,11.87
2023-03-29T04:09:33.511Z,11.89
2023-03-29T04:12:01.743Z,11.91
2023-03-29T04:14:28.446Z,11.91
2023-03-29T04:16:55.695Z,11.94
2023-03-29T04:19:23.130Z,11.91
2023-03-29T04:21:51.288Z,11.87
2023-03-29T04:24:18.088Z,11.84
2023-03-29T04:26:45.196Z,11.81
2023-03-29T04:29:11.964Z,11.76
2023-03-29T04:31:38.704Z,11.77
2023-03-29T04:34:05.609Z,11.78
2023-03-29T04:36:32.527Z,11.82
2023-03-29T04:39:01.628Z,11.82
2023-03-29T04:41:29.083Z,11.82
2023-03-29T04:43:56.252Z,11.83
2023-03-29T04:46:26.662Z,11.82
2023-03-29T04:48:54.082Z,11.78
2023-03-29T04:51:22.630Z,11.76
2023-03-29T04:53:50.386Z,11.76
2023-03-29T04:56:17.356Z,11.79
2023-03-29T04:58:44.758Z,11.76
2023-03-29T05:01:11.690Z,11.75
2023-03-29T05:03:38.677Z,11.74
2023-03-29T05:06:07.678Z,11.73
2023-03-29T05:08:39.324Z,11.75
2023-03-29T05:11:08.548Z,11.75
2023-03-29T05:13:35.504Z,11.72
2023-03-29T05:16:02.671Z,11.71
2023-03-29T05:18:30.537Z,11.72
2023-03-29T05:20:58.000Z,11.73
2023-03-29T05:23:25.240Z,11.72
2023-03-29T05:25:55.796Z,11.72
2023-03-29T05:28:22.715Z,11.72
2023-03-29T05:31:01.385Z,11.69
2023-03-29T05:33:28.329Z,11.72
2023-03-29T05:36:06.564Z,11.69
2023-03-29T05:38:33.959Z,11.70
2023-03-29T05:41:01.173Z,11.68
2023-03-29T05:43:28.682Z,11.65
2023-03-29T05:45:56.462Z,11.63
2023-03-29T05:48:23.940Z,11.60
2023-03-29T05:50:53.869Z,11.56
2023-03-29T05:53:22.806Z,11.54
2023-03-29T05:55:49.874Z,11.53
2023-03-29T05:58:18.290Z,11.54
2023-03-29T06:00:52.973Z,11.50
2023-03-29T06:03:25.539Z,11.52
2023-03-29T06:05:59.868Z,11.51
2023-03-29T06:08:28.029Z,11.53
2023-03-29T06:11:02.473Z,11.57
2023-03-29T06:13:33.670Z,11.56
2023-03-29T06:16:01.197Z,11.57
2023-03-29T06:18:28.224Z,11.58
2023-03-29T06:20:55.260Z,11.59
2023-03-29T06:23:23.169Z,11.61
2023-03-29T06:25:51.605Z,11.61
2023-03-29T06:28:19.954Z,11.63
2023-03-29T06:30:47.205Z,11.62
2023-03-29T06:33:14.841Z,11.61
2023-03-29T06:35:43.948Z,11.61
2023-03-29T06:38:11.422Z,11.61
2023-03-29T06:40:38.370Z,11.61
2023-03-29T06:43:06.906Z,11.62
2023-03-29T06:45:36.243Z,11.62
2023-03-29T06:48:04.468Z,11.63
2023-03-29T06:50:31.568Z,11.63
2023-03-29T06:52:58.560Z,11.62
2023-03-29T06:55:26.180Z,11.63
2023-03-29T06:57:54.205Z,11.65
2023-03-29T07:00:30.847Z,11.67
2023-03-29T07:02:58.682Z,11.68
2023-03-29T07:05:28.633Z,11.68
2023-03-29T07:08:11.606Z,11.70
2023-03-29T07:10:39.384Z,11.70
2023-03-29T07:13:08.835Z,11.70
2023-03-29T07:15:36.215Z,11.70
2023-03-29T07:18:04.908Z,11.70
2023-03-29T07:20:33.806Z,11.69
2023-03-29T07:23:00.920Z,11.68
2023-03-29T07:25:27.848Z,11.67
2023-03-29T07:27:54.748Z,11.67
2023-03-29T07:30:24.470Z,11.69
2023-03-29T07:32:52.453Z,11.73
2023-03-29T07:35:19.629Z,11.78
2023-03-29T07:37:46.618Z,11.82
2023-03-29T07:40:18.378Z,11.86
2023-03-29T07:42:49.093Z,11.89
2023-03-29T07:45:17.141Z,11.93
2023-03-29T07:47:44.823Z,11.96
2023-03-29T07:50:12.581Z,11.99
2023-03-29T07:52:39.737Z,12.01
2023-03-29T07:55:08.245Z,11.99
2023-03-29T07:57:35.615Z,11.99
2023-03-29T08:00:16.550Z,11.99
2023-03-29T08:02:45.682Z,11.98
2023-03-29T08:05:14.315Z,11.93
2023-03-29T08:07:43.248Z,11.90
2023-03-29T08:10:13.902Z,11.90
2023-03-29T08:12:41.235Z,11.90
2023-03-29T08:15:09.362Z,11.94
2023-03-29T08:17:37.249Z,11.97
2023-03-29T08:20:06.100Z,11.99
2023-03-29T08:22:33.888Z,12.04
2023-03-29T08:25:00.818Z,12.05
2023-03-29T08:27:27.632Z,12.04
2023-03-29T08:29:54.581Z,11.98
2023-03-29T08:32:21.612Z,11.93
2023-03-29T08:34:48.589Z,11.94
2023-03-29T08:37:15.873Z,11.95
2023-03-29T08:39:42.945Z,11.95
2023-03-29T08:42:36.493Z,11.99
2023-03-29T08:45:32.794Z,12.00
2023-03-29T08:48:02.334Z,12.02
2023-03-29T08:50:40.697Z,12.05
2023-03-29T08:53:15.554Z,12.05
2023-03-29T08:55:45.400Z,12.09
2023-03-29T08:58:20.353Z,12.11
2023-03-29T09:00:52.241Z,12.12
2023-03-29T09:03:25.390Z,12.09
2023-03-29T09:06:04.009Z,12.11
2023-03-29T09:08:31.209Z,12.13
2023-03-29T09:11:23.472Z,12.08
2023-03-29T09:14:11.385Z,12.04
2023-03-29T09:16:54.714Z,12.04
2023-03-29T09:19:46.244Z,12.06
2023-03-29T09:22:40.271Z,12.12
2023-03-29T09:25:29.886Z,12.11
2023-03-29T09:28:19.342Z,12.15
2023-03-29T09:31:04.056Z,12.19
2023-03-29T09:33:44.157Z,12.20
2023-03-29T09:36:32.685Z,12.24
2023-03-29T09:38:59.959Z,12.23
2023-03-29T09:41:35.801Z,12.16
2023-03-29T09:44:17.656Z,12.12
2023-03-29T09:46:57.735Z,12.06
2023-03-29T09:49:33.318Z,12.04
2023-03-29T09:52:06.800Z,12.02
2023-03-29T09:54:33.514Z,12.03
2023-03-29T09:57:00.448Z,12.03
2023-03-29T09:59:27.201Z,12.05
2023-03-29T10:01:53.982Z,12.03
2023-03-29T10:04:22.428Z,12.05
2023-03-29T10:06:52.459Z,12.08
2023-03-29T10:09:24.896Z,12.07
2023-03-29T10:11:55.249Z,12.07
2023-03-29T10:14:54.242Z,12.12
2023-03-29T10:17:22.360Z,12.12
2023-03-29T10:20:01.598Z,12.11
2023-03-29T10:22:37.887Z,12.12
2023-03-29T10:25:13.016Z,12.14
2023-03-29T10:27:42.596Z,12.18
2023-03-29T10:30:13.051Z,12.23
2023-03-29T10:32:41.427Z,12.24
2023-03-29T10:35:15.237Z,12.24
2023-03-29T10:37:49.920Z,12.23
2023-03-29T10:40:25.718Z,12.23
2023-03-29T10:42:54.112Z,12.24
2023-03-29T10:45:25.976Z,12.26
2023-03-29T10:47:55.604Z,12.25
2023-03-29T10:50:22.590Z,12.26
2023-03-29T10:52:50.573Z,12.23
2023-03-29T10:55:17.490Z,12.22
2023-03-29T10:57:47.325Z,12.20
2023-03-29T11:00:23.616Z,12.17
2023-03-29T11:03:14.272Z,12.18
2023-03-29T11:06:18.471Z,12.19
2023-03-29T11:09:02.083Z,12.24
2023-03-29T11:12:14.849Z,12.26
2023-03-29T11:15:03.113Z,12.27
2023-03-29T11:18:06.164Z,12.28
2023-03-29T11:20:45.202Z,12.31
2023-03-29T11:23:25.115Z,12.35
2023-03-29T11:26:19.136Z,12.35
2023-03-29T11:29:03.033Z,12.38
2023-03-29T11:31:44.503Z,12.39
2023-03-29T11:34:20.700Z,12.41
2023-03-29T11:36:58.924Z,12.45
2023-03-29T11:39:34.889Z,12.51
2023-03-29T11:42:11.816Z,12.56
2023-03-29T11:44:41.144Z,12.71
2023-03-29T11:47:17.287Z,12.94
2023-03-29T11:50:06.824Z,13.12
2023-03-29T11:52:38.050Z,13.41
2023-03-29T11:55:14.580Z,13.58
2023-03-29T11:57:48.029Z,13.83
2023-03-29T12:00:27.636Z,14.23
2023-03-29T12:02:54.315Z,14.52
2023-03-29T12:05:31.122Z,15.00
2023-03-29T12:08:06.552Z,15.33
2023-03-29T12:10:39.783Z,15.84
2023-03-29T12:13:17.157Z,15.92
2023-03-29T12:16:27.687Z,16.11
2023-03-29T12:19:02.740Z,16.96
2023-03-29T12:21:31.153Z,17.04
2023-03-29T12:23:58.766Z,17.12
2023-03-29T12:26:35.312Z,17.86
2023-03-29T12:29:18.567Z,18.18
2023-03-29T12:32:19.677Z,19.06
2023-03-29T12:34:55.985Z,20.04
2023-03-29T12:37:52.806Z,20.76
2023-03-29T12:40:21.421Z,20.44
2023-03-29T12:43:02.974Z,21.71
2023-03-29T12:45:34.645Z,23.17
2023-03-29T12:48:01.996Z,24.56
2023-03-29T12:50:35.666Z,25.49
2023-03-29T12:53:12.700Z,25.48
2023-03-29T12:55:42.523Z,25.39
2023-03-29T12:58:40.153Z,26.66
2023-03-29T13:01:22.642Z,26.33
2023-03-29T13:03:56.104Z,26.85
2023-03-29T13:06:54.097Z,26.86
2023-03-29T13:09:30.060Z,26.47
2023-03-29T13:12:27.044Z,27.21
2023-03-29T13:15:01.165Z,27.92
2023-03-29T13:17:34.326Z,26.64
2023-03-29T13:20:21.868Z,26.02
2023-03-29T13:22:48.741Z,25.80
2023-03-29T13:25:52.698Z,26.18
2023-03-29T13:28:22.668Z,26.32
2023-03-29T13:30:58.465Z,26.07
2023-03-29T13:33:50.001Z,25.48
2023-03-29T13:36:54.380Z,25.41
2023-03-29T13:39:25.475Z,25.89
2023-03-29T13:41:54.306Z,25.05
2023-03-29T13:44:30.037Z,25.58
2023-03-29T13:47:19.308Z,24.31
2023-03-29T13:49:54.279Z,23.02
2023-03-29T13:52:39.527Z,22.89
2023-03-29T13:55:11.123Z,23.19
2023-03-29T13:57:43.697Z,23.37
2023-03-29T14:00:20.385Z,25.23
2023-03-29T14:03:01.509Z,25.38
2023-03-29T14:05:47.826Z,26.37
2023-03-29T14:08:21.948Z,25.72
2023-03-29T14:10:49.749Z,26.12
2023-03-29T14:13:23.097Z,26.45
2023-03-29T14:15:55.821Z,25.71
2023-03-29T14:18:25.653Z,27.29
2023-03-29T14:20:55.648Z,26.28
2023-03-29T14:23:28.453Z,25.65
2023-03-29T14:25:55.156Z,25.32
2023-03-29T14:28:27.232Z,24.27
2023-03-29T14:30:55.160Z,23.23
2023-03-29T14:33:29.914Z,23.86
2023-03-29T14:35:59.218Z,24.17
2023-03-29T14:38:27.517Z,23.32
2023-03-29T14:40:59.452Z,24.45
2023-03-29T14:43:31.100Z,23.64
2023-03-29T14:45:58.751Z,24.95
2023-03-29T14:48:26.589Z,24.43
2023-03-29T14:50:53.643Z,27.16
2023-03-29T14:53:22.960Z,29.41
2023-03-29T14:55:52.601Z,28.49
2023-03-29T14:58:37.238Z,27.96
2023-03-29T15:01:16.258Z,26.04
2023-03-29T15:04:10.570Z,24.73
2023-03-29T15:06:47.047Z,24.05
2023-03-29T15:09:27.217Z,24.30
2023-03-29T15:11:56.592Z,24.33
2023-03-29T15:14:27.054Z,23.33
2023-03-29T15:17:02.945Z,25.93
2023-03-29T15:19:29.720Z,26.89
2023-03-29T15:21:56.375Z,28.54
2023-03-29T15:24:27.944Z,26.88
2023-03-29T15:27:03.791Z,24.84
2023-03-29T15:29:41.282Z,23.57
2023-03-29T15:32:09.942Z,25.54
2023-03-29T15:34:38.377Z,23.75
2023-03-29T15:37:05.092Z,22.36
2023-03-29T15:39:32.585Z,21.39
2023-03-29T15:41:59.582Z,20.58
2023-03-29T15:44:32.673Z,20.04
2023-03-29T15:47:00.207Z,19.69
2023-03-29T15:49:27.294Z,21.22
2023-03-29T15:51:54.840Z,22.33
2023-03-29T15:54:22.450Z,21.47
2023-03-29T15:56:53.625Z,20.42
2023-03-29T15:59:20.900Z,19.80
2023-03-29T16:01:48.216Z,19.30
2023-03-29T16:04:20.700Z,18.80
2023-03-29T16:06:53.356Z,18.42
2023-03-29T16:09:21.713Z,18.14
2023-03-29T16:11:49.613Z,18.06
2023-03-29T16:14:23.207Z,18.17
2023-03-29T16:16:51.467Z,18.04
2023-03-29T16:19:18.472Z,17.92
2023-03-29T16:21:45.779Z,18.27
2023-03-29T16:24:15.658Z,18.86
2023-03-29T16:26:42.807Z,19.23
2023-03-29T16:29:09.648Z,20.02
2023-03-29T16:31:36.443Z,20.25
2023-03-29T16:34:04.397Z,20.34
2023-03-29T16:36:33.171Z,21.82
2023-03-29T16:39:00.339Z,22.48
2023-03-29T16:41:27.169Z,22.99
2023-03-29T16:43:54.187Z,23.18
2023-03-29T16:46:21.097Z,23.17
2023-03-29T16:48:48.972Z,22.94
2023-03-29T16:51:15.892Z,23.09
2023-03-29T16:53:43.291Z,22.95
2023-03-29T16:56:10.999Z,22.38
2023-03-29T16:58:41.564Z,21.65
2023-03-29T17:01:13.457Z,21.45
2023-03-29T17:03:41.113Z,21.23
2023-03-29T17:06:09.193Z,20.98
2023-03-29T17:08:36.736Z,20.64
2023-03-29T17:11:04.240Z,20.60
2023-03-29T17:13:31.230Z,19.99
2023-03-29T17:15:58.218Z,21.09
2023-03-29T17:18:28.007Z,22.41
2023-03-29T17:20:58.771Z,23.31
2023-03-29T17:23:25.931Z,23.20
2023-03-29T17:25:55.686Z,22.16
2023-03-29T17:28:23.234Z,21.46
2023-03-29T17:30:49.951Z,20.95
2023-03-29T17:33:18.176Z,20.36
2023-03-29T17:35:46.042Z,19.91
2023-03-29T17:38:12.841Z,19.50
2023-03-29T17:40:39.743Z,19.07
2023-03-29T17:43:06.618Z,18.70
2023-03-29T17:45:35.347Z,18.29
2023-03-29T17:48:04.763Z,17.98
2023-03-29T17:50:33.127Z,17.72
2023-03-29T17:52:59.811Z,17.32
2023-03-29T17:55:27.468Z,17.15
2023-03-29T17:57:54.342Z,17.00
2023-03-29T18:00:21.358Z,16.88
2023-03-29T18:02:48.213Z,16.75
2023-03-29T18:05:15.243Z,16.62
2023-03-29T18:07:41.890Z,16.53
2023-03-29T18:10:08.911Z,16.45
2023-03-29T18:12:36.449Z,16.32
2023-03-29T18:15:04.145Z,16.23
2023-03-29T18:17:31.374Z,16.11
2023-03-29T18:19:58.182Z,15.98
2023-03-29T18:22:25.033Z,15.86
2023-03-29T18:24:51.825Z,15.80
2023-03-29T18:27:19.048Z,15.68
2023-03-29T18:29:45.889Z,15.60
2023-03-29T18:32:13.126Z,15.54
2023-03-29T18:34:40.087Z,15.49
2023-03-29T18:37:07.487Z,15.41
2023-03-29T18:39:34.814Z,15.32
2023-03-29T18:42:02.822Z,15.25
2023-03-29T18:44:29.637Z,15.14
2023-03-29T18:46:56.415Z,15.03
2023-03-29T18:49:39.497Z,14.89
2023-03-29T18:52:06.160Z,14.79
2023-03-29T18:54:32.910Z,14.72
2023-03-29T18:57:00.742Z,14.66
2023-03-29T18:59:27.653Z,14.63
2023-03-29T19:01:54.514Z,14.58
2023-03-29T19:04:21.497Z,14.50
2023-03-29T19:06:49.385Z,14.45
2023-03-29T19:09:16.276Z,14.39
2023-03-29T19:11:43.815Z,14.33
2023-03-29T19:14:10.612Z,14.31
2023-03-29T19:16:37.542Z,14.30
2023-03-29T19:19:06.944Z,14.29
2023-03-29T19:21:33.756Z,14.24
2023-03-29T19:24:01.166Z,14.20
2023-03-29T19:26:33.452Z,14.17
2023-03-29T19:29:02.340Z,14.14
2023-03-29T19:31:29.179Z,14.11
2023-03-29T19:33:56.486Z,14.06
2023-03-29T19:36:23.146Z,14.02
2023-03-29T19:38:50.182Z,13.96
2023-03-29T19:41:17.517Z,13.90
2023-03-29T19:43:44.208Z,13.85
2023-03-29T19:46:12.912Z,13.84
2023-03-29T19:48:40.278Z,13.78
2023-03-29T19:51:08.032Z,13.77
2023-03-29T19:53:38.166Z,13.73
2023-03-29T19:56:07.898Z,13.70
2023-03-29T19:58:34.748Z,13.66
2023-03-29T20:01:01.627Z,13.67
2023-03-29T20:03:28.728Z,13.65
2023-03-29T20:05:56.693Z,13.63
2023-03-29T20:08:24.892Z,13.61
2023-03-29T20:15:51.886Z,13.63
2023-03-29T20:18:18.841Z,13.60
2023-03-29T20:20:46.875Z,13.60
2023-03-29T20:23:15.634Z,13.60
2023-03-29T20:25:42.612Z,13.59
2023-03-29T20:28:09.398Z,13.57
2023-03-29T20:30:36.416Z,13.58
2023-03-29T20:33:04.346Z,13.62
2023-03-29T20:35:31.039Z,13.63
2023-03-29T20:37:57.865Z,13.65
2023-03-29T20:40:24.914Z,13.64
2023-03-29T20:42:54.289Z,13.63
2023-03-29T20:45:21.162Z,13.60
2023-03-29T20:47:57.911Z,13.61
2023-03-29T20:50:30.317Z,13.62
2023-03-29T20:52:57.412Z,13.62
2023-03-29T20:55:24.454Z,13.63
2023-03-29T20:57:54.281Z,13.63
2023-03-29T21:00:24.163Z,13.57
2023-03-29T21:02:52.485Z,13.51
2023-03-29T21:05:19.509Z,13.49
2023-03-29T21:07:48.138Z,13.49
2023-03-29T21:10:15.889Z,13.48
2023-03-29T21:12:42.947Z,13.44
2023-03-29T21:15:11.464Z,13.43
2023-03-29T21:17:38.187Z,13.43
2023-03-29T21:20:11.172Z,13.42
2023-03-29T21:22:39.418Z,13.42
2023-03-29T21:25:08.244Z,13.40
2023-03-29T21:27:34.996Z,13.37
2023-03-29T21:30:02.908Z,13.38
2023-03-29T21:32:29.631Z,13.37
2023-03-29T21:34:56.436Z,13.36
2023-03-29T21:37:23.460Z,13.34
2023-03-29T21:39:50.539Z,13.30
2023-03-29T21:42:17.748Z,13.29
2023-03-29T21:44:45.087Z,13.29
2023-03-29T21:47:11.792Z,13.29
2023-03-29T21:49:39.769Z,13.28
2023-03-29T21:52:07.271Z,13.29
2023-03-29T21:54:34.282Z,13.28
2023-03-29T21:57:01.369Z,13.28
2023-03-29T21:59:28.217Z,13.27
2023-03-29T22:01:55.218Z,13.28
2023-03-29T22:04:33.541Z,13.31
2023-03-29T22:07:03.459Z,13.30
2023-03-29T22:09:30.285Z,13.29
2023-03-29T22:11:59.996Z,13.32
2023-03-29T22:14:29.589Z,13.33
2023-03-29T22:16:56.385Z,13.32
2023-03-29T22:19:23.115Z,13.34
2023-03-29T22:21:51.500Z,13.34
2023-03-29T22:24:18.975Z,13.36
2023-03-29T22:26:45.990Z,13.36
2023-03-29T22:29:12.837Z,13.39
2023-03-29T22:31:39.714Z,13.43
2023-03-29T22:34:06.741Z,13.46
2023-03-29T22:36:33.767Z,13.47
2023-03-29T22:39:00.771Z,13.48
2023-03-29T22:41:28.337Z,13.48
2023-03-29T22:43:57.897Z,13.47
2023-03-29T22:46:25.521Z,13.45
2023-03-29T22:48:53.137Z,13.39
2023-03-29T22:51:20.530Z,13.40
2023-03-29T22:53:47.706Z,13.39
2023-03-29T22:56:15.979Z,13.36
2023-03-29T22:58:43.148Z,13.35
2023-03-29T23:01:10.332Z,13.33
2023-03-29T23:03:37.102Z,13.32
2023-03-29T23:06:04.649Z,13.29
2023-03-29T23:08:32.985Z,13.25
2023-03-29T23:11:00.690Z,13.20
2023-03-29T23:13:29.419Z,13.17
2023-03-29T23:15:59.214Z,13.11
2023-03-29T23:18:28.670Z,13.06
2023-03-29T23:20:57.369Z,12.97
2023-03-29T23:23:25.565Z,12.88
2023-03-29T23:25:53.373Z,12.84
2023-03-29T23:28:24.816Z,12.82
2023-03-29T23:31:00.559Z,12.77
2023-03-29T23:33:30.723Z,12.70
2023-03-29T23:35:58.827Z,12.62
2023-03-29T23:38:26.860Z,12.55
2023-03-29T23:41:00.522Z,12.44
2023-03-29T23:43:32.640Z,12.38
2023-03-29T23:46:02.737Z,12.34
2023-03-29T23:48:29.789Z,12.28
2023-03-29T23:50:59.436Z,12.23
2023-03-29T23:53:29.051Z,12.17
2023-03-29T23:56:00.576Z,12.12
2023-03-29T23:58:36.186Z,12.09
